Terminal Aerodrome Forecast
Issued by NWS

Current Version | Previous Version | Text Only | Print | Product List | Glossary Off
Versions: 1 2 3 4 5 6 7 8 9 10 11 12 13 14

000
FTUS42 KMHX 231600 AAB
TAFOAJ
TAF AMD
KOAJ 231604Z 2316/2412 01004KT P6SM VCSH SCT040 BKN050
      TEMPO 2317/2321 5SM SHRA OVC040
     FM232100 13015G22KT 3SM -SHRA BR VCTS OVC020CB
     FM240100 10015G22KT 5SM -TSRA OVC015CB
     FM240700 21012KT 3SM BR VCSH OVC010
      AMD LTD TO CLD VIS AND WIND=

USA.gov is the U.S. government's official web portal to all federal, state and local government web resources and services.